createdAt,value
2023-03-01T00:01:04.754Z,100.00
2023-03-01T00:03:32.905Z,100.00
2023-03-01T00:06:00.827Z,100.00
2023-03-01T00:08:28.560Z,100.00
2023-03-01T00:11:03.151Z,100.00
2023-03-01T00:13:31.004Z,100.00
2023-03-01T00:16:00.149Z,100.00
2023-03-01T00:18:27.886Z,100.00
2023-03-01T00:20:56.203Z,100.00
2023-03-01T00:23:24.614Z,100.00
2023-03-01T00:25:52.857Z,100.00
2023-03-01T00:28:21.023Z,100.00
2023-03-01T00:30:49.014Z,100.00
2023-03-01T00:33:18.266Z,100.00
2023-03-01T00:35:46.004Z,100.00
2023-03-01T00:38:13.618Z,100.00
2023-03-01T00:40:41.266Z,100.00
2023-03-01T00:43:08.969Z,100.00
2023-03-01T00:45:36.683Z,100.00
2023-03-01T00:48:04.488Z,100.00
2023-03-01T00:50:33.588Z,100.00
2023-03-01T00:53:01.268Z,100.00
2023-03-01T00:55:28.996Z,100.00
2023-03-01T00:57:56.725Z,100.00
2023-03-01T01:00:24.633Z,100.00
2023-03-01T01:02:52.406Z,100.00
2023-03-01T01:05:21.929Z,100.00
2023-03-01T01:07:51.323Z,100.00
2023-03-01T01:10:19.054Z,100.00
2023-03-01T01:12:46.992Z,100.00
2023-03-01T01:15:17.575Z,100.00
2023-03-01T01:17:45.775Z,100.00
2023-03-01T01:20:13.790Z,100.00
2023-03-01T01:22:41.464Z,100.00
2023-03-01T01:25:11.646Z,100.00
2023-03-01T01:27:39.321Z,100.00
2023-03-01T01:30:07.644Z,100.00
2023-03-01T01:32:35.342Z,100.00
2023-03-01T01:35:03.083Z,100.00
2023-03-01T01:37:32.241Z,100.00
2023-03-01T01:40:00.527Z,100.00
2023-03-01T01:42:29.733Z,100.00
2023-03-01T01:45:12.250Z,100.00
2023-03-01T01:47:39.977Z,100.00
2023-03-01T01:50:16.642Z,100.00
2023-03-01T01:52:44.621Z,100.00
2023-03-01T01:55:13.764Z,100.00
2023-03-01T01:57:44.271Z,100.00
2023-03-01T02:00:14.923Z,100.00
2023-03-01T02:02:43.968Z,100.00
2023-03-01T02:05:15.389Z,100.00
2023-03-01T02:07:43.861Z,100.00
2023-03-01T02:10:11.776Z,100.00
2023-03-01T02:12:40.004Z,100.00
2023-03-01T02:15:09.689Z,100.00
2023-03-01T02:17:37.681Z,100.00
2023-03-01T02:20:14.453Z,100.00
2023-03-01T02:22:42.374Z,100.00
2023-03-01T02:25:15.283Z,100.00
2023-03-01T02:27:48.585Z,100.00
2023-03-01T02:30:18.438Z,100.00
2023-03-01T02:32:45.050Z,100.00
2023-03-01T02:35:14.455Z,100.00
2023-03-01T02:37:43.308Z,100.00
2023-03-01T02:40:13.664Z,100.00
2023-03-01T02:42:47.807Z,100.00
2023-03-01T02:45:15.587Z,100.00
2023-03-01T02:47:44.757Z,100.00
2023-03-01T02:50:16.668Z,100.00
2023-03-01T02:52:50.572Z,100.00
2023-03-01T02:55:19.172Z,100.00
2023-03-01T02:57:47.785Z,100.00
2023-03-01T03:00:20.356Z,100.00
2023-03-01T03:02:50.140Z,100.00
2023-03-01T03:05:19.264Z,100.00
2023-03-01T03:07:48.187Z,100.00
2023-03-01T03:10:21.215Z,100.00
2023-03-01T03:12:51.220Z,100.00
2023-03-01T03:15:21.056Z,100.00
2023-03-01T03:17:53.021Z,100.00
2023-03-01T03:20:21.623Z,100.00
2023-03-01T03:22:50.357Z,100.00
2023-03-01T03:25:18.338Z,100.00
2023-03-01T03:27:47.256Z,100.00
2023-03-01T03:30:16.328Z,100.00
2023-03-01T03:32:51.480Z,100.00
2023-03-01T03:35:21.124Z,100.00
2023-03-01T03:38:03.938Z,100.00
2023-03-01T03:40:32.661Z,100.00
2023-03-01T03:43:00.323Z,100.00
2023-03-01T03:45:28.049Z,100.00
2023-03-01T03:47:55.732Z,100.00
2023-03-01T03:50:24.794Z,100.00
2023-03-01T03:52:52.475Z,100.00
2023-03-01T03:55:20.778Z,100.00
2023-03-01T03:57:52.357Z,100.00
2023-03-01T04:00:21.191Z,100.00
2023-03-01T04:02:49.607Z,100.00
2023-03-01T04:05:18.145Z,100.00
2023-03-01T04:07:47.290Z,100.00
2023-03-01T04:10:15.810Z,100.00
2023-03-01T04:12:44.206Z,100.00
2023-03-01T04:15:14.759Z,100.00
2023-03-01T04:17:42.692Z,100.00
2023-03-01T04:20:12.102Z,100.00
2023-03-01T04:22:40.424Z,100.00
2023-03-01T04:25:15.037Z,100.00
2023-03-01T04:27:42.868Z,100.00
2023-03-01T04:30:11.132Z,100.00
2023-03-01T04:32:38.938Z,100.00
2023-03-01T04:35:06.814Z,100.00
2023-03-01T04:37:35.848Z,100.00
2023-03-01T04:40:13.348Z,100.00
2023-03-01T04:42:43.320Z,100.00
2023-03-01T04:45:14.152Z,100.00
2023-03-01T04:47:42.499Z,100.00
2023-03-01T04:50:10.820Z,100.00
2023-03-01T04:52:38.579Z,100.00
2023-03-01T04:55:06.666Z,100.00
2023-03-01T04:57:34.431Z,100.00
2023-03-01T05:00:15.560Z,100.00
2023-03-01T05:02:44.361Z,100.00
2023-03-01T05:05:11.996Z,100.00
2023-03-01T05:07:39.679Z,100.00
2023-03-01T05:10:07.583Z,100.00
2023-03-01T05:12:35.296Z,100.00
2023-03-01T05:15:10.293Z,100.00
2023-03-01T05:17:38.134Z,100.00
2023-03-01T05:20:09.497Z,100.00
2023-03-01T05:22:37.470Z,100.00
2023-03-01T05:25:05.951Z,100.00
2023-03-01T05:27:33.620Z,100.00
2023-03-01T05:30:14.285Z,100.00
2023-03-01T05:32:45.713Z,100.00
2023-03-01T05:35:15.135Z,100.00
2023-03-01T05:37:43.690Z,100.00
2023-03-01T05:40:16.554Z,100.00
2023-03-01T05:42:47.785Z,100.00
2023-03-01T05:45:16.207Z,100.00
2023-03-01T05:47:46.106Z,100.00
2023-03-01T05:50:15.421Z,100.00
2023-03-01T05:52:43.097Z,100.00
2023-03-01T05:55:11.047Z,100.00
2023-03-01T05:57:38.752Z,100.00
2023-03-01T06:00:07.389Z,100.00
2023-03-01T06:02:35.091Z,100.00
2023-03-01T06:05:04.757Z,100.00
2023-03-01T06:07:32.488Z,100.00
2023-03-01T06:10:00.195Z,100.00
2023-03-01T06:12:27.969Z,100.00
2023-03-01T06:14:55.644Z,100.00
2023-03-01T06:17:23.321Z,100.00
2023-03-01T06:19:50.986Z,100.00
2023-03-01T06:22:20.034Z,100.00
2023-03-01T06:24:47.804Z,100.00
2023-03-01T06:27:15.589Z,100.00
2023-03-01T06:29:43.336Z,100.00
2023-03-01T06:32:11.079Z,100.00
2023-03-01T06:34:38.880Z,100.00
2023-03-01T06:37:06.511Z,100.00
2023-03-01T06:39:35.650Z,100.00
2023-03-01T06:42:03.332Z,100.00
2023-03-01T06:44:31.120Z,100.00
2023-03-01T06:46:58.874Z,100.00
2023-03-01T06:49:26.747Z,100.00
2023-03-01T06:51:56.439Z,100.00
2023-03-01T06:54:26.301Z,100.00
2023-03-01T06:56:55.292Z,100.00
2023-03-01T06:59:23.045Z,100.00
2023-03-01T07:01:50.680Z,100.00
2023-03-01T07:04:18.384Z,100.00
2023-03-01T07:06:46.029Z,100.00
2023-03-01T07:09:13.685Z,100.00
2023-03-01T07:11:41.365Z,100.00
2023-03-01T07:14:10.412Z,100.00
2023-03-01T07:16:38.292Z,100.00
2023-03-01T07:19:06.382Z,100.00
2023-03-01T07:21:34.107Z,100.00
2023-03-01T07:24:01.779Z,100.00
2023-03-01T07:26:29.638Z,100.00
2023-03-01T07:28:57.446Z,100.00
2023-03-01T07:31:28.772Z,100.00
2023-03-01T07:33:56.494Z,100.00
2023-03-01T07:36:24.539Z,100.00
2023-03-01T07:38:52.355Z,100.00
2023-03-01T07:41:20.014Z,100.00
2023-03-01T07:43:47.737Z,100.00
2023-03-01T07:46:15.383Z,100.00
2023-03-01T07:48:44.515Z,100.00
2023-03-01T07:51:12.818Z,100.00
2023-03-01T07:53:40.786Z,100.00
2023-03-01T07:56:09.716Z,100.00
2023-03-01T07:58:37.524Z,100.00
2023-03-01T08:01:05.392Z,100.00
2023-03-01T08:03:33.155Z,100.00
2023-03-01T08:06:02.952Z,100.00
2023-03-01T08:08:30.723Z,100.00
2023-03-01T08:10:58.875Z,100.00
2023-03-01T08:13:26.744Z,100.00
2023-03-01T08:15:55.031Z,100.00
2023-03-01T08:18:23.242Z,100.00
2023-03-01T08:20:50.872Z,100.00
2023-03-01T08:23:20.026Z,100.00
2023-03-01T08:25:47.937Z,100.00
2023-03-01T08:28:15.676Z,100.00
2023-03-01T08:30:43.326Z,100.00
2023-03-01T08:33:11.041Z,100.00
2023-03-01T08:35:38.808Z,100.00
2023-03-01T08:38:06.543Z,100.00
2023-03-01T08:40:35.523Z,100.00
2023-03-01T08:43:03.704Z,100.00
2023-03-01T08:45:31.484Z,100.00
2023-03-01T08:47:59.192Z,100.00
2023-03-01T08:50:26.814Z,100.00
2023-03-01T08:52:54.463Z,100.00
2023-03-01T08:55:22.176Z,100.00
2023-03-01T08:57:51.213Z,100.00
2023-03-01T09:00:19.449Z,100.00
2023-03-01T09:02:47.112Z,100.00
2023-03-01T09:05:14.877Z,100.00
2023-03-01T09:07:42.557Z,100.00
2023-03-01T09:10:11.136Z,100.00
2023-03-01T09:12:38.810Z,100.00
2023-03-01T09:15:08.637Z,100.00
2023-03-01T09:17:36.341Z,100.00
2023-03-01T09:20:06.824Z,100.00
2023-03-01T09:22:35.176Z,100.00
2023-03-01T09:25:02.855Z,100.00
2023-03-01T09:27:30.484Z,100.00
2023-03-01T09:29:58.297Z,100.00
2023-03-01T09:32:27.416Z,100.00
2023-03-01T09:35:05.702Z,100.00
2023-03-01T09:37:34.231Z,100.00
2023-03-01T09:40:02.018Z,100.00
2023-03-01T09:42:32.121Z,100.00
2023-03-01T09:45:02.269Z,100.00
2023-03-01T09:47:32.604Z,100.00
2023-03-01T09:50:04.190Z,100.00
2023-03-01T09:52:35.876Z,100.00
2023-03-01T09:55:03.673Z,100.00
2023-03-01T09:57:35.093Z,100.00
2023-03-01T10:00:17.797Z,100.00
2023-03-01T10:02:49.651Z,100.00
2023-03-01T10:05:36.717Z,100.00
2023-03-01T10:08:13.369Z,100.00
2023-03-01T10:10:42.221Z,100.00
2023-03-01T10:13:21.753Z,100.00
2023-03-01T10:15:56.352Z,100.00
2023-03-01T10:18:27.220Z,100.00
2023-03-01T10:20:55.996Z,100.00
2023-03-01T10:23:24.818Z,100.00
2023-03-01T10:26:02.197Z,100.00
2023-03-01T10:28:32.916Z,100.00
2023-03-01T10:31:04.490Z,100.00
2023-03-01T10:33:34.973Z,100.00
2023-03-01T10:36:02.719Z,100.00
2023-03-01T10:38:32.640Z,100.00
2023-03-01T10:41:02.234Z,100.00
2023-03-01T10:43:34.309Z,100.00
2023-03-01T10:46:01.971Z,100.00
2023-03-01T10:48:29.721Z,100.00
2023-03-01T10:51:08.556Z,100.00
2023-03-01T10:53:37.483Z,100.00
2023-03-01T10:56:06.511Z,100.00
2023-03-01T10:58:37.739Z,100.00
2023-03-01T11:01:06.231Z,100.00
2023-03-01T11:03:35.620Z,100.00
2023-03-01T11:06:05.196Z,100.00
2023-03-01T11:08:41.937Z,100.00
2023-03-01T11:11:19.012Z,100.00
2023-03-01T11:13:54.404Z,100.00
2023-03-01T11:16:26.298Z,100.00
2023-03-01T11:19:02.086Z,100.00
2023-03-01T11:21:33.299Z,100.00
2023-03-01T11:24:03.904Z,100.00
2023-03-01T11:26:32.454Z,100.00
2023-03-01T11:29:04.289Z,100.00
2023-03-01T11:31:33.121Z,100.00
2023-03-01T11:34:05.050Z,100.00
2023-03-01T11:36:34.455Z,98.86
2023-03-01T11:39:05.416Z,99.15
2023-03-01T11:41:34.761Z,98.43
2023-03-01T11:44:04.857Z,97.34
2023-03-01T11:47:03.528Z,98.79
2023-03-01T11:49:40.090Z,97.49
2023-03-01T11:52:13.228Z,97.91
2023-03-01T11:54:50.986Z,96.56
2023-03-01T11:57:25.022Z,99.32
2023-03-01T12:00:01.665Z,98.03
2023-03-01T12:02:54.758Z,99.16
2023-03-01T12:05:37.284Z,97.39
2023-03-01T12:08:09.945Z,95.71
2023-03-01T12:10:44.783Z,95.65
2023-03-01T12:13:31.015Z,97.73
2023-03-01T12:16:07.588Z,97.57
2023-03-01T12:18:42.281Z,97.39
2023-03-01T12:21:16.076Z,98.29
2023-03-01T12:23:56.739Z,96.73
2023-03-01T12:26:31.150Z,95.51
2023-03-01T12:29:06.382Z,94.31
2023-03-01T12:31:41.032Z,95.00
2023-03-01T12:34:14.960Z,94.62
2023-03-01T12:36:50.133Z,94.92
2023-03-01T12:39:25.342Z,96.91
2023-03-01T12:42:02.580Z,92.78
2023-03-01T12:44:37.754Z,92.50
2023-03-01T12:47:12.054Z,93.42
2023-03-01T12:49:42.537Z,92.30
2023-03-01T12:52:13.794Z,91.71
2023-03-01T12:54:43.575Z,92.33
2023-03-01T12:57:18.715Z,93.39
2023-03-01T12:59:53.138Z,92.74
2023-03-01T13:02:25.382Z,93.40
2023-03-01T13:04:59.780Z,91.40
2023-03-01T13:07:31.205Z,93.34
2023-03-01T13:10:06.640Z,91.95
2023-03-01T13:12:54.653Z,93.01
2023-03-01T13:15:26.963Z,90.83
2023-03-01T13:17:55.416Z,91.68
2023-03-01T13:20:24.535Z,90.85
2023-03-01T13:23:03.129Z,91.40
2023-03-01T13:25:34.760Z,91.74
2023-03-01T13:28:28.385Z,90.39
2023-03-01T13:30:57.506Z,93.11
2023-03-01T13:33:42.549Z,93.27
2023-03-01T13:36:11.976Z,94.59
2023-03-01T13:38:41.281Z,91.55
2023-03-01T13:41:09.401Z,91.47
2023-03-01T13:43:37.711Z,92.89
2023-03-01T13:46:12.881Z,91.22
2023-03-01T13:48:41.117Z,89.49
2023-03-01T13:51:10.583Z,91.59
2023-03-01T13:53:40.925Z,90.32
2023-03-01T13:56:10.487Z,90.45
2023-03-01T13:58:46.535Z,90.73
2023-03-01T14:01:23.388Z,91.78
2023-03-01T14:03:51.173Z,91.88
2023-03-01T14:06:21.771Z,93.44
2023-03-01T14:08:53.461Z,93.56
2023-03-01T14:11:39.006Z,91.76
2023-03-01T14:14:12.777Z,91.70
2023-03-01T14:16:47.221Z,92.56
2023-03-01T14:19:32.050Z,93.16
2023-03-01T14:22:06.534Z,94.83
2023-03-01T14:24:37.159Z,94.13
2023-03-01T14:27:05.029Z,94.52
2023-03-01T14:29:36.309Z,93.69
2023-03-01T14:32:20.400Z,94.25
2023-03-01T14:34:48.513Z,94.22
2023-03-01T14:37:21.795Z,93.57
2023-03-01T14:39:49.693Z,95.34
2023-03-01T14:42:17.863Z,94.51
2023-03-01T14:44:47.187Z,95.55
2023-03-01T14:47:17.119Z,97.04
2023-03-01T14:49:45.779Z,98.07
2023-03-01T14:52:21.142Z,99.94
2023-03-01T14:54:50.347Z,100.00
2023-03-01T14:57:18.940Z,100.00
2023-03-01T14:59:48.735Z,99.76
2023-03-01T15:02:20.247Z,98.35
2023-03-01T15:04:50.310Z,98.33
2023-03-01T15:07:18.088Z,97.58
2023-03-01T15:09:46.132Z,98.31
2023-03-01T15:12:32.096Z,97.03
2023-03-01T15:15:04.351Z,98.15
2023-03-01T15:17:35.447Z,99.38
2023-03-01T15:20:04.848Z,99.08
2023-03-01T15:22:32.972Z,99.80
2023-03-01T15:25:00.932Z,100.00
2023-03-01T15:27:29.403Z,100.00
2023-03-01T15:29:57.978Z,100.00
2023-03-01T15:32:27.912Z,100.00
2023-03-01T15:34:57.244Z,100.00
2023-03-01T15:37:41.807Z,100.00
2023-03-01T15:40:25.256Z,100.00
2023-03-01T15:42:53.215Z,100.00
2023-03-01T15:45:26.684Z,100.00
2023-03-01T15:47:55.651Z,100.00
2023-03-01T15:50:26.101Z,100.00
2023-03-01T15:52:54.061Z,100.00
2023-03-01T15:55:22.725Z,100.00
2023-03-01T15:57:51.020Z,100.00
2023-03-01T16:00:19.859Z,100.00
2023-03-01T16:02:47.720Z,100.00
2023-03-01T16:05:19.605Z,100.00
2023-03-01T16:07:48.612Z,100.00
2023-03-01T16:10:16.421Z,100.00
2023-03-01T16:12:44.138Z,100.00
2023-03-01T16:15:16.160Z,100.00
2023-03-01T16:17:43.940Z,100.00
2023-03-01T16:20:19.654Z,100.00
2023-03-01T16:22:52.480Z,100.00
2023-03-01T16:25:21.836Z,100.00
2023-03-01T16:27:51.330Z,100.00
2023-03-01T16:30:20.628Z,100.00
2023-03-01T16:32:48.769Z,100.00
2023-03-01T16:35:17.217Z,100.00
2023-03-01T16:37:44.957Z,100.00
2023-03-01T16:40:18.589Z,100.00
2023-03-01T16:42:46.216Z,100.00
2023-03-01T16:45:23.526Z,100.00
2023-03-01T16:47:55.149Z,100.00
2023-03-01T16:50:23.569Z,100.00
2023-03-01T16:52:51.257Z,100.00
2023-03-01T16:55:20.570Z,100.00
2023-03-01T16:57:48.278Z,100.00
2023-03-01T17:00:16.584Z,100.00
2023-03-01T17:02:44.318Z,100.00
2023-03-01T17:05:12.821Z,100.00
2023-03-01T17:07:40.709Z,100.00
2023-03-01T17:10:11.332Z,100.00
2023-03-01T17:12:40.627Z,100.00
2023-03-01T17:15:08.868Z,100.00
2023-03-01T17:17:36.728Z,100.00
2023-03-01T17:20:07.284Z,100.00
2023-03-01T17:22:34.906Z,100.00
2023-03-01T17:25:02.705Z,100.00
2023-03-01T17:27:30.537Z,100.00
2023-03-01T17:29:59.894Z,100.00
2023-03-01T17:32:27.701Z,100.00
2023-03-01T17:34:55.353Z,100.00
2023-03-01T17:37:23.179Z,100.00
2023-03-01T17:39:50.901Z,100.00
2023-03-01T17:42:18.641Z,100.00
2023-03-01T17:44:46.305Z,100.00
2023-03-01T17:47:15.371Z,100.00
2023-03-01T17:49:43.057Z,100.00
2023-03-01T17:52:10.697Z,100.00
2023-03-01T17:54:38.333Z,100.00
2023-03-01T17:57:07.455Z,100.00
2023-03-01T17:59:37.176Z,100.00
2023-03-01T18:02:04.947Z,100.00
2023-03-01T18:04:34.075Z,100.00
2023-03-01T18:07:01.793Z,100.00
2023-03-01T18:09:30.562Z,100.00
2023-03-01T18:11:58.810Z,100.00
2023-03-01T18:14:29.834Z,100.00
2023-03-01T18:16:57.651Z,100.00
2023-03-01T18:19:25.359Z,100.00
2023-03-01T18:21:54.396Z,100.00
2023-03-01T18:24:22.131Z,100.00
2023-03-01T18:26:49.869Z,100.00
2023-03-01T18:29:17.543Z,100.00
2023-03-01T18:31:47.482Z,100.00
2023-03-01T18:34:15.377Z,100.00
2023-03-01T18:36:47.890Z,100.00
2023-03-01T18:39:25.697Z,100.00
2023-03-01T18:41:53.697Z,100.00
2023-03-01T18:44:21.547Z,100.00
2023-03-01T18:46:49.329Z,100.00
2023-03-01T18:49:17.172Z,100.00
2023-03-01T18:51:44.934Z,100.00
2023-03-01T18:54:12.633Z,100.00
2023-03-01T18:56:41.823Z,100.00
2023-03-01T18:59:09.641Z,100.00
2023-03-01T19:01:38.000Z,100.00
2023-03-01T19:04:06.477Z,100.00
2023-03-01T19:06:35.331Z,100.00
2023-03-01T19:09:03.217Z,100.00
2023-03-01T19:11:33.614Z,100.00
2023-03-01T19:14:03.244Z,100.00
2023-03-01T19:16:32.368Z,100.00
2023-03-01T19:19:00.862Z,100.00
2023-03-01T19:21:31.433Z,100.00
2023-03-01T19:24:00.116Z,100.00
2023-03-01T19:26:28.811Z,100.00
2023-03-01T19:28:57.172Z,100.00
2023-03-01T19:31:28.516Z,100.00
2023-03-01T19:34:10.016Z,100.00
2023-03-01T19:36:39.003Z,100.00
2023-03-01T19:39:07.786Z,100.00
2023-03-01T19:41:35.692Z,100.00
2023-03-01T19:44:05.498Z,100.00
2023-03-01T19:46:35.429Z,100.00
2023-03-01T19:49:04.023Z,100.00
2023-03-01T19:51:33.341Z,100.00
2023-03-01T19:54:01.278Z,100.00
2023-03-01T19:56:29.118Z,100.00
2023-03-01T19:59:00.507Z,100.00
2023-03-01T20:01:29.843Z,100.00
2023-03-01T20:03:59.040Z,100.00
2023-03-01T20:06:26.848Z,100.00
2023-03-01T20:08:54.530Z,100.00
2023-03-01T20:11:22.203Z,100.00
2023-03-01T20:13:49.916Z,100.00
2023-03-01T20:16:18.015Z,100.00
2023-03-01T20:18:45.781Z,100.00
2023-03-01T20:21:24.188Z,100.00
2023-03-01T20:23:52.572Z,100.00
2023-03-01T20:26:20.746Z,100.00
2023-03-01T20:28:49.078Z,100.00
2023-03-01T20:31:17.879Z,100.00
2023-03-01T20:33:45.620Z,100.00
2023-03-01T20:36:15.044Z,100.00
2023-03-01T20:38:42.772Z,100.00
2023-03-01T20:41:11.670Z,100.00
2023-03-01T20:43:39.813Z,100.00
2023-03-01T20:46:08.096Z,100.00
2023-03-01T20:48:35.803Z,100.00
2023-03-01T20:51:06.250Z,100.00
2023-03-01T20:53:35.390Z,100.00
2023-03-01T20:56:03.514Z,100.00
2023-03-01T20:58:32.963Z,100.00
2023-03-01T21:01:00.969Z,100.00
2023-03-01T21:03:28.829Z,100.00
2023-03-01T21:05:56.932Z,100.00
2023-03-01T21:08:24.606Z,100.00
2023-03-01T21:10:54.142Z,100.00
2023-03-01T21:13:22.074Z,100.00
2023-03-01T21:15:56.462Z,100.00
2023-03-01T21:18:29.553Z,100.00
2023-03-01T21:20:59.822Z,100.00
2023-03-01T21:23:27.618Z,100.00
2023-03-01T21:26:03.593Z,100.00
2023-03-01T21:28:33.247Z,100.00
2023-03-01T21:31:05.196Z,100.00
2023-03-01T21:33:33.283Z,100.00
2023-03-01T21:36:01.825Z,100.00
2023-03-01T21:38:35.318Z,100.00
2023-03-01T21:41:07.040Z,100.00
2023-03-01T21:43:34.925Z,100.00
2023-03-01T21:46:03.488Z,100.00
2023-03-01T21:48:31.122Z,100.00
2023-03-01T21:50:59.705Z,100.00
2023-03-01T21:53:28.318Z,100.00
2023-03-01T21:55:55.960Z,100.00
2023-03-01T21:58:25.665Z,100.00
2023-03-01T22:00:53.276Z,100.00
2023-03-01T22:03:21.046Z,100.00
2023-03-01T22:05:55.022Z,100.00
2023-03-01T22:08:22.647Z,100.00
2023-03-01T22:10:50.338Z,100.00
2023-03-01T22:13:18.313Z,100.00
2023-03-01T22:15:47.707Z,100.00
2023-03-01T22:18:15.453Z,100.00
2023-03-01T22:20:43.193Z,100.00
2023-03-01T22:23:10.952Z,100.00
2023-03-01T22:25:42.394Z,100.00
2023-03-01T22:28:10.139Z,100.00
2023-03-01T22:30:37.899Z,100.00
2023-03-01T22:33:06.946Z,100.00
2023-03-01T22:35:34.581Z,100.00
2023-03-01T22:38:02.321Z,100.00
2023-03-01T22:40:30.168Z,100.00
2023-03-01T22:42:57.844Z,100.00
2023-03-01T22:45:25.512Z,100.00
2023-03-01T22:47:53.120Z,100.00
2023-03-01T22:50:22.461Z,100.00
2023-03-01T22:52:50.157Z,100.00
2023-03-01T22:55:17.858Z,100.00
2023-03-01T22:57:45.544Z,100.00
2023-03-01T23:00:13.683Z,100.00
2023-03-01T23:02:41.640Z,100.00
2023-03-01T23:05:09.881Z,100.00
2023-03-01T23:07:39.194Z,100.00
2023-03-01T23:10:07.249Z,100.00
2023-03-01T23:12:34.916Z,100.00
2023-03-01T23:15:06.071Z,100.00
2023-03-01T23:17:33.757Z,100.00
2023-03-01T23:20:01.466Z,100.00
2023-03-01T23:22:31.456Z,100.00
2023-03-01T23:25:00.511Z,100.00
2023-03-01T23:27:30.740Z,100.00
2023-03-01T23:29:58.521Z,100.00
2023-03-01T23:32:26.246Z,100.00
2023-03-01T23:34:53.895Z,100.00
2023-03-01T23:37:21.825Z,100.00
2023-03-01T23:39:49.438Z,100.00
2023-03-01T23:42:18.550Z,100.00
2023-03-01T23:44:46.377Z,100.00
2023-03-01T23:47:14.068Z,100.00
2023-03-01T23:49:41.917Z,100.00
2023-03-01T23:52:12.474Z,100.00
2023-03-01T23:54:40.080Z,100.00
2023-03-01T23:57:08.209Z,100.00
2023-03-01T23:59:37.241Z,100.00
